EGNV METAR and TAF | Updated Today

EGNV METAR

Durham Tees Valley Airport

Observation time: 5 min. ago

EGNV 292020Z 33004KT 4000 BR SCT002 09/08 Q1010

Need help? Read our tutorial on how to read METARs or read the parsed version below.

Durham Tees Valley Airport (EGNV) METAR

  • Weather conditions on Thu, 29 Sep 2022 20:20:00 +0000 (5 min. ago):
  • Present conditions: Mist
  • Clouds: Scattered at 61 meters
  • Visibility: 4000 meters
  • Wind: 330 degrees at 4 knots
  • Temperature: 9 celsius
  • Dew point: 8 celsius
  • Pressure: 1010 millibars
  • Remarks: None


Useful to know...

EGNV TAF

Durham Tees Valley Airport

TAF AMD EGNV 291900Z 2919/2923 03004KT 9999 SCT025 TEMPO 2919/2923 8000 PROB30 2921/2923 4000 BR
Observation time: 85 min. ago
Need help? Read our tutorial on how to read TAFs or read the parsed version below.

Parsed version of TAF for Durham Tees Valley Airport (EGNV)

  • From 29 September at 19:00 UTC, to day 29 of the month at 23:00 UTC
  • Clouds: Scattered at 762 meters
  • Visibility: Greater than 10 km
  • Wind: 30 degrees at 4
  • Expected to arise temporarily, from 29 September at 19:00 UTC, to day 29 of the month at 23:00 UTC
  • Visibility: 8000 meters
  • From 29 September at 21:00 UTC, to day 29 of the month at 23:00 UTC
    Probability of 30%
  • Visibility: 4000 meters
  • Other: Mist